Hauptseite
METAR-TAF:

METAR-TAF

Flughäfen :

Flughafen Mailand-Malpensa

Mailand, Italien

Breite: 45-37N, Länge: 008-44E, Höhe: 234 m

Beobachtung

Neuester Wetterbericht von vor 37 Minuten, um 00:20 UTC
Wind 6 kt aus Nord
Temperatur 12°C
Luftfeuchtigkeit 94%
Luftdruck 1007 hPa
Sichtweite: 8000 m
Durchbrochene Bewölkung in der Höhe von 3000 ft
Leichtregen

METAR: LIMC 230020Z 36006KT 8000 -RA BKN030 12/11 Q1007 NOSIG

Zeit: 02:57 (00:57 UTC)

Prognose

Neuester Wetterbericht von vor 1 Stunde und 57 Minuten, um 23:00 UTC
Gültige Prognose vom 23 um 00 UTC bis 24 um 06 UTC
Wind 6 kt aus Nord
Sichtweite: 6000 m
Durchbrochene Bewölkung in der Höhe von 2000 ft
Durchbrochene Bewölkung in der Höhe von 5000 ft
Regen

TAF: LIMC 222300Z 2300/2406 35006KT 6000 RA BKN020 BKN050

Wetterbeobachtungen und Prognosen von mehr als 4000 Flughäfen (METAR und TAF Bericht).

Die verfügbaren Stationen werden durch gelbe und rote Markierungen auf der Karte dargestellt.

Führen Sie die Maus auf sie, um den Namen der Station zu sehen.

Darauf klicken, um die Beobachtung von Wetterbeobachtungen und Prognosen zu sehen.

Um die Karte zu ändern : klicken Sie auf den grünen Tasten mit einem schwarzen Kreuz Zum Vergrößern, auf den grünen Button mit einem Gedankenstrich zu verkleinern, oder auf die grünen Pfeile für benachbarte Karten.


METAR-TAF: